Terminal Aerodrome Forecast
Issued by NWS Glasgow, MT

Home | Current Version | Previous Version | Text Only | Print | Product List | Glossary On
Versions: 1 2 3 4 5 6 7 8 9 10 11 12 13
000
FTUS45 KGGW 210500
TAFGGW
TAF
KGGW 210520Z 2106/2206 28015G25KT P6SM VCSH BKN100
     FM210700 VRB05KT P6SM VCSH SCT050 BKN100
     FM211800 VRB06KT 6SM -SHRA OVC045
     FM220000 VRB06KT 5SM -SHRA BKN027=

USA.gov is the U.S. government's official web portal to all federal, state and local government web resources and services.